Time;durP1;ratioP1;P1;durP2;ratioP2;P2;SDS_P1;SDS_P2;PMS_P1;PMS_P2;Temp;Humidity;BMP_temperature;BMP_pressure;BME280_temperature;BME280_humidity;BME280_pressure;Samples;Min_cycle;Max_cycle;Signal;HPM_P1;HPM_P2
2023/10/05 00:00:46;;;;;;;5.68;2.50;;;;;;;10.59;100.00;99142.72;15297011;19;20456;-53
2023/10/05 00:06:16;;;;;;;3.53;2.35;;;;;;;10.59;100.00;99147.28;15290169;19;20018;-50
2023/10/05 00:11:41;;;;;;;3.67;2.25;;;;;;;10.55;100.00;99160.19;15300561;19;20010;-50
2023/10/05 00:17:08;;;;;;;4.18;2.35;;;;;;;10.45;100.00;99170.97;15295441;19;20541;-52
2023/10/05 00:22:36;;;;;;;4.35;2.22;;;;;;;10.35;100.00;99164.69;15294767;19;20015;-53
2023/10/05 00:28:05;;;;;;;4.55;2.30;;;;;;;10.35;100.00;99163.84;15292308;19;20021;-54
2023/10/05 00:33:29;;;;;;;5.15;2.30;;;;;;;10.36;100.00;99174.47;15299095;19;20015;-50
2023/10/05 00:39:01;;;;;;;6.75;2.30;;;;;;;10.41;100.00;99174.91;15286795;19;20014;-49
2023/10/05 00:44:26;;;;;;;4.40;2.40;;;;;;;10.48;100.00;99177.91;15295539;19;20423;-51
2023/10/05 00:49:58;;;;;;;4.82;2.42;;;;;;;10.51;100.00;99163.31;15291102;19;20081;-51
2023/10/05 00:55:26;;;;;;;5.10;2.60;;;;;;;10.55;100.00;99140.47;15294495;19;20406;-49
2023/10/05 01:00:53;;;;;;;3.78;2.45;;;;;;;10.59;100.00;99137.34;15293790;19;20494;-50
2023/10/05 01:06:26;;;;;;;3.72;2.38;;;;;;;10.57;100.00;99133.97;15292311;19;20017;-49
2023/10/05 01:11:55;;;;;;;4.95;2.33;;;;;;;10.59;100.00;99141.88;15297049;19;20021;-50
2023/10/05 01:17:25;;;;;;;4.53;2.42;;;;;;;10.56;100.00;99147.56;15291020;19;20031;-50
2023/10/05 01:22:49;;;;;;;6.97;2.55;;;;;;;10.56;100.00;99148.41;15289343;19;20074;-51
2023/10/05 01:28:19;;;;;;;4.88;2.28;;;;;;;10.51;100.00;99134.53;15288258;19;20413;-51
2023/10/05 01:33:44;;;;;;;3.28;2.38;;;;;;;10.50;100.00;99124.72;15293318;19;20094;-51
2023/10/05 01:39:12;;;;;;;5.65;2.60;;;;;;;10.36;100.00;99131.38;15286629;19;20022;-49
2023/10/05 01:44:40;;;;;;;4.55;2.60;;;;;;;10.32;100.00;99129.97;15292085;19;20022;-52
2023/10/05 01:50:18;;;;;;;4.60;2.55;;;;;;;10.30;100.00;99111.25;15288596;19;20014;-54
2023/10/05 01:55:45;;;;;;;4.65;2.63;;;;;;;10.32;100.00;99117.34;15288082;19;20018;-51
2023/10/05 02:01:13;;;;;;;5.32;2.70;;;;;;;10.32;100.00;99113.78;15284084;19;20014;-52
2023/10/05 02:06:41;;;;;;;4.45;2.70;;;;;;;10.30;100.00;99110.38;15287316;19;20022;-52
2023/10/05 02:12:07;;;;;;;6.40;2.78;;;;;;;10.25;100.00;99101.91;15287998;19;20015;-52
2023/10/05 02:17:40;;;;;;;4.85;2.78;;;;;;;10.16;100.00;99109.84;15287120;19;20022;-50
2023/10/05 02:23:16;;;;;;;4.78;2.70;;;;;;;10.14;100.00;99110.97;15286724;19;20347;-50
2023/10/05 02:28:42;;;;;;;5.20;2.90;;;;;;;10.12;100.00;99116.50;15285708;19;20020;-53
2023/10/05 02:34:10;;;;;;;5.53;2.80;;;;;;;10.09;100.00;99119.47;15289991;19;20041;-50
2023/10/05 02:39:37;;;;;;;5.05;2.80;;;;;;;10.08;100.00;99128.53;15287463;19;20455;-53
2023/10/05 02:45:05;;;;;;;5.43;2.90;;;;;;;9.96;100.00;99126.97;15283008;19;20015;-51
2023/10/05 02:50:40;;;;;;;4.55;2.70;;;;;;;9.98;100.00;99133.94;15284847;19;20018;-54
2023/10/05 02:56:16;;;;;;;5.28;2.88;;;;;;;9.94;100.00;99131.63;15283918;19;20018;-49
2023/10/05 03:01:40;;;;;;;6.45;3.00;;;;;;;9.92;100.00;99139.84;15285041;19;20403;-50
2023/10/05 03:07:08;;;;;;;4.95;2.90;;;;;;;9.96;100.00;99135.03;15282013;19;20029;-53
2023/10/05 03:12:33;;;;;;;5.55;3.17;;;;;;;9.95;100.00;99128.81;15286597;19;20146;-51
2023/10/05 03:17:59;;;;;;;4.60;2.80;;;;;;;9.93;100.00;99122.72;15279112;19;20041;-51
2023/10/05 03:23:26;;;;;;;6.35;3.08;;;;;;;10.00;100.00;99121.16;15284423;19;20002;-50
2023/10/05 03:28:51;;;;;;;7.65;3.10;;;;;;;9.94;100.00;99120.88;15281987;19;20025;-49
2023/10/05 03:34:15;;;;;;;7.25;3.38;;;;;;;9.91;100.00;99118.47;15286624;19;20014;-52
2023/10/05 03:39:53;;;;;;;5.75;3.03;;;;;;;9.90;100.00;99114.91;15282257;19;20022;-48
2023/10/05 03:45:22;;;;;;;4.82;2.92;;;;;;;9.86;100.00;99110.81;15283719;19;20036;-51
2023/10/05 03:50:54;;;;;;;4.22;2.95;;;;;;;9.87;100.00;99099.91;15274217;19;20629;-51
2023/10/05 03:56:23;;;;;;;6.43;3.20;;;;;;;9.91;100.00;99100.47;15280237;19;20019;-48
2023/10/05 04:01:49;;;;;;;5.43;2.78;;;;;;;9.92;100.00;99101.34;15282383;19;20029;-52
2023/10/05 04:07:15;;;;;;;6.50;3.33;;;;;;;9.94;100.00;99099.34;15278963;19;20854;-51
2023/10/05 04:12:43;;;;;;;5.47;3.20;;;;;;;9.87;100.00;99102.59;15298212;19;20014;-52
2023/10/05 04:18:11;;;;;;;5.50;3.10;;;;;;;9.93;100.00;99101.19;15295085;19;20020;-51
2023/10/05 04:23:36;;;;;;;6.18;3.20;;;;;;;9.86;100.00;99100.91;15288836;19;20022;-51
2023/10/05 04:29:04;;;;;;;5.72;3.00;;;;;;;9.94;100.00;99099.34;15295134;19;20014;-53
2023/10/05 04:34:30;;;;;;;7.60;3.28;;;;;;;9.93;100.00;99093.09;15299953;19;20022;-52
2023/10/05 04:39:55;;;;;;;6.53;3.20;;;;;;;10.00;100.00;99082.63;15320980;19;20030;-58
2023/10/05 04:45:23;;;;;;;4.07;2.85;;;;;;;10.03;100.00;99095.81;15333384;19;20031;-53
2023/10/05 04:50:56;;;;;;;6.00;3.05;;;;;;;10.03;100.00;99093.97;15292974;19;20017;-52
2023/10/05 04:56:34;;;;;;;5.72;3.40;;;;;;;10.02;100.00;99086.88;15288758;19;20053;-53
2023/10/05 05:02:12;;;;;;;4.60;3.00;;;;;;;10.05;100.00;99085.75;15295067;19;20799;-52
2023/10/05 05:07:37;;;;;;;5.72;2.97;;;;;;;10.08;100.00;99090.84;15288989;19;20404;-52
2023/10/05 05:13:03;;;;;;;4.60;2.70;;;;;;;10.13;100.00;99077.81;15296295;19;20011;-54
2023/10/05 05:18:31;;;;;;;6.32;3.33;;;;;;;10.12;100.00;99076.13;15290687;19;20014;-54
2023/10/05 05:23:58;;;;;;;5.47;3.13;;;;;;;10.13;100.00;99072.44;15287712;19;20017;-53
2023/10/05 05:29:32;;;;;;;6.47;3.30;;;;;;;10.12;100.00;99070.72;15289586;19;21206;-50
2023/10/05 05:35:02;;;;;;;7.85;3.38;;;;;;;10.14;100.00;99063.38;15293796;19;20086;-50
2023/10/05 05:40:29;;;;;;;8.57;3.10;;;;;;;10.19;100.00;99060.25;15292338;19;20082;-51
2023/10/05 05:45:54;;;;;;;9.73;3.00;;;;;;;10.20;100.00;99056.56;15289592;19;20097;-52
2023/10/05 05:51:31;;;;;;;6.55;3.15;;;;;;;10.19;100.00;99054.84;15291509;19;20036;-53
2023/10/05 05:56:57;;;;;;;11.25;3.30;;;;;;;10.15;100.00;99059.69;15286712;19;20078;-53
2023/10/05 06:02:23;;;;;;;8.77;3.40;;;;;;;10.16;100.00;99053.31;15290939;19;20021;-50
2023/10/05 06:07:50;;;;;;;6.35;3.50;;;;;;;10.23;100.00;99055.41;15283491;19;20494;-54
2023/10/05 06:13:17;;;;;;;6.32;3.20;;;;;;;10.23;100.00;99055.41;15292894;19;20018;-51
2023/10/05 06:18:43;;;;;;;9.55;3.55;;;;;;;10.24;100.00;99062.50;15288142;19;20020;-51
2023/10/05 06:24:10;;;;;;;9.65;3.40;;;;;;;10.30;100.00;99067.28;15284398;19;20011;-52
2023/10/05 06:29:35;;;;;;;6.85;3.20;;;;;;;10.37;100.00;99073.81;15285074;19;20014;-52
2023/10/05 06:34:59;;;;;;;7.35;3.50;;;;;;;10.45;100.00;99071.28;15288081;19;20028;-52
2023/10/05 06:40:29;;;;;;;8.48;3.42;;;;;;;10.53;100.00;99086.72;15288379;19;20037;-49
2023/10/05 06:45:54;;;;;;;6.95;3.20;;;;;;;10.66;100.00;99082.88;15286792;19;20049;-48
2023/10/05 06:51:35;;;;;;;5.50;2.83;;;;;;;10.82;100.00;99084.97;15288419;19;20440;-48
2023/10/05 06:57:03;;;;;;;6.10;2.90;;;;;;;10.97;100.00;99085.31;15279061;19;20015;-51
2023/10/05 07:02:28;;;;;;;6.88;2.97;;;;;;;11.14;100.00;99078.31;15275321;19;20014;-50
2023/10/05 07:07:53;;;;;;;7.50;3.25;;;;;;;11.28;100.00;99083.22;15280417;19;20020;-49
2023/10/05 07:13:22;;;;;;;5.47;3.13;;;;;;;11.46;100.00;99085.13;15287590;19;20018;-53
2023/10/05 07:18:48;;;;;;;6.45;3.00;;;;;;;11.63;100.00;99089.69;15282464;19;20482;-49
2023/10/05 07:24:14;;;;;;;6.10;2.53;;;;;;;11.74;100.00;99091.34;15281765;19;20018;-51
2023/10/05 07:29:45;;;;;;;6.20;2.80;;;;;;;11.91;100.00;99094.19;15287088;19;20074;-49
2023/10/05 07:35:10;;;;;;;4.80;2.70;;;;;;;12.07;100.00;99090.84;15277959;19;20029;-49
2023/10/05 07:40:39;;;;;;;7.28;3.03;;;;;;;12.16;100.00;99088.06;15286959;19;20010;-49
2023/10/05 07:46:07;;;;;;;5.32;2.50;;;;;;;12.26;100.00;99085.28;14775402;19;10000819;-50
2023/10/05 07:51:37;;;;;;;5.50;2.60;;;;;;;12.41;100.00;99084.69;15301595;19;20412;-49
2023/10/05 07:57:03;;;;;;;4.20;2.70;;;;;;;12.54;100.00;99095.13;15295790;19;20029;-49
2023/10/05 08:02:24;;;;;;;3.90;2.33;;;;;;;12.70;100.00;99089.81;15298855;19;20007;-48
2023/10/05 08:07:50;;;;;;;7.20;2.75;;;;;;;12.83;100.00;99081.31;15289518;19;20035;-48
2023/10/05 08:13:16;;;;;;;4.60;2.70;;;;;;;12.95;100.00;99077.31;15300403;19;20006;-49
2023/10/05 08:18:46;;;;;;;5.80;2.78;;;;;;;13.05;100.00;99079.06;15270511;19;20359;-51
2023/10/05 08:24:11;;;;;;;5.88;2.30;;;;;;;13.21;100.00;99097.22;15291749;19;20082;-52
2023/10/05 08:29:40;;;;;;;4.07;2.40;;;;;;;13.35;100.00;99082.22;15296802;19;20002;-51
2023/10/05 08:35:13;;;;;;;5.85;2.30;;;;;;;13.47;100.00;99091.78;15293938;19;20479;-49
2023/10/05 08:40:43;;;;;;;5.03;2.38;;;;;;;13.66;100.00;99100.66;15291307;19;20031;-51
2023/10/05 08:46:10;;;;;;;3.90;1.70;;;;;;;13.96;100.00;99098.34;15293043;19;20093;-50
2023/10/05 08:51:46;;;;;;;3.10;1.50;;;;;;;14.22;100.00;99090.09;15297405;19;20025;-50
2023/10/05 08:57:24;;;;;;;3.65;1.65;;;;;;;14.36;100.00;99096.69;15289828;19;20593;-51
2023/10/05 09:02:51;;;;;;;3.10;1.40;;;;;;;14.51;100.00;99093.31;15299838;19;20382;-50
2023/10/05 09:08:21;;;;;;;3.58;1.30;;;;;;;14.57;100.00;99103.47;15286128;19;20025;-49
2023/10/05 09:13:53;;;;;;;3.72;1.50;;;;;;;14.60;100.00;99111.28;15282724;19;20025;-48
2023/10/05 09:19:29;;;;;;;2.08;1.30;;;;;;;14.62;100.00;99111.94;15293128;19;20511;-49
2023/10/05 09:25:05;;;;;;;2.85;1.50;;;;;;;14.65;100.00;99122.44;15289705;19;20022;-51
2023/10/05 09:30:32;;;;;;;2.97;1.30;;;;;;;14.67;100.00;99125.88;15293612;19;20014;-50
2023/10/05 09:36:06;;;;;;;2.40;1.30;;;;;;;14.71;100.00;99110.94;15291409;19;20010;-49
2023/10/05 09:41:37;;;;;;;2.80;1.40;;;;;;;14.84;100.00;99117.72;15293084;19;20022;-49
2023/10/05 09:47:02;;;;;;;2.85;1.30;;;;;;;14.97;100.00;99109.91;15281968;19;20489;-53
2023/10/05 09:52:31;;;;;;;4.03;1.45;;;;;;;15.07;100.00;99115.97;15290525;19;20048;-50
2023/10/05 09:58:05;;;;;;;2.72;1.33;;;;;;;15.23;100.00;99092.50;15287438;19;20010;-50
2023/10/05 10:03:31;;;;;;;1.80;1.13;;;;;;;15.33;100.00;99090.47;15292232;19;20026;-50
2023/10/05 10:09:08;;;;;;;2.25;1.08;;;;;;;15.46;100.00;99086.34;15284681;19;20026;-49
2023/10/05 10:14:36;;;;;;;2.40;1.17;;;;;;;15.63;100.00;99093.38;15291919;19;20483;-49
2023/10/05 10:20:17;;;;;;;2.65;1.27;;;;;;;15.71;100.00;99095.19;15284547;19;20026;-51
2023/10/05 10:25:43;;;;;;;2.40;1.10;;;;;;;15.75;100.00;99079.38;15285308;19;20028;-51
2023/10/05 10:31:42;;;;;;;2.70;1.23;;;;;;;15.78;100.00;99089.91;15289120;19;20019;-50
2023/10/05 10:37:09;;;;;;;2.72;1.40;;;;;;;15.84;100.00;99100.94;15292063;19;20455;-49
2023/10/05 10:43:06;;;;;;;2.38;1.30;;;;;;;16.01;100.00;99098.97;15279397;19;20010;-50
2023/10/05 10:48:36;;;;;;;2.88;1.20;;;;;;;16.00;100.00;99099.97;15268356;19;20018;-49
2023/10/05 10:54:08;;;;;;;2.83;1.27;;;;;;;16.09;100.00;99108.94;15284267;19;20014;-49
2023/10/05 10:59:41;;;;;;;3.35;1.30;;;;;;;15.86;100.00;99103.47;15290432;19;20014;-49
2023/10/05 11:05:15;;;;;;;2.95;1.40;;;;;;;15.76;100.00;99114.50;15287016;19;20077;-48
2023/10/05 11:10:41;;;;;;;2.40;1.33;;;;;;;15.72;100.00;99111.31;15288698;19;20021;-49
2023/10/05 11:16:09;;;;;;;2.28;1.17;;;;;;;15.74;100.00;99108.44;15286795;19;20037;-47
2023/10/05 11:21:45;;;;;;;3.28;1.40;;;;;;;15.63;100.00;99125.97;15293394;19;20037;-47
2023/10/05 11:27:14;;;;;;;3.78;1.23;;;;;;;15.61;100.00;99106.28;15299482;19;20028;-47
2023/10/05 11:32:42;;;;;;;3.17;1.48;;;;;;;15.53;100.00;99107.16;15305093;19;20010;-47
2023/10/05 11:38:30;;;;;;;3.28;1.30;;;;;;;15.56;100.00;99095.13;15297542;19;20025;-48
2023/10/05 11:43:55;;;;;;;2.47;1.30;;;;;;;15.61;100.00;99095.41;15300197;19;20016;-47
2023/10/05 11:49:21;;;;;;;3.00;1.45;;;;;;;15.61;100.00;99105.44;15301051;19;20014;-49
2023/10/05 11:54:49;;;;;;;3.50;1.80;;;;;;;15.52;100.00;99119.03;15296405;19;20014;-49
2023/10/05 12:00:16;;;;;;;3.58;1.60;;;;;;;15.53;100.00;99103.59;15303332;19;20018;-50
2023/10/05 12:05:41;;;;;;;3.30;1.40;;;;;;;15.49;100.00;99103.13;15296429;19;20020;-48
2023/10/05 12:11:10;;;;;;;3.45;1.70;;;;;;;15.49;100.00;99118.56;15302507;19;20025;-48
2023/10/05 12:16:38;;;;;;;4.28;1.30;;;;;;;15.53;100.00;99109.03;15296485;19;20526;-49
2023/10/05 12:22:06;;;;;;;3.85;1.63;;;;;;;15.57;100.00;99110.38;15301112;19;20014;-50
2023/10/05 12:27:35;;;;;;;3.65;1.60;;;;;;;15.74;100.00;99107.56;15292345;19;20010;-49
2023/10/05 12:33:00;;;;;;;3.65;1.70;;;;;;;15.79;100.00;99108.72;15300992;19;20097;-47
2023/10/05 12:38:25;;;;;;;3.03;1.52;;;;;;;15.78;100.00;99107.03;15293953;19;20019;-48
2023/10/05 12:43:56;;;;;;;3.78;1.60;;;;;;;15.90;100.00;99099.38;15297410;19;20019;-47
2023/10/05 12:49:22;;;;;;;3.05;1.55;;;;;;;15.97;100.00;99097.63;15296135;19;20041;-49
2023/10/05 12:54:48;;;;;;;3.70;1.50;;;;;;;15.97;100.00;99097.63;15297142;19;20077;-51
2023/10/05 13:00:22;;;;;;;3.75;1.63;;;;;;;15.97;100.00;99100.34;15293893;19;20010;-50
2023/10/05 13:05:49;;;;;;;3.03;1.40;;;;;;;15.94;100.00;99122.44;15293884;19;20015;-50
2023/10/05 13:11:14;;;;;;;2.90;1.35;;;;;;;15.94;100.00;99111.56;15298512;19;20011;-52
2023/10/05 13:16:42;;;;;;;3.97;1.42;;;;;;;15.93;100.00;99115.31;15292698;19;20032;-50
2023/10/05 13:22:11;;;;;;;3.72;1.55;;;;;;;15.96;100.00;99103.25;15296597;19;20014;-48
2023/10/05 13:27:39;;;;;;;4.43;1.45;;;;;;;15.99;100.00;99113.75;15292300;19;20017;-48
2023/10/05 13:33:13;;;;;;;3.60;1.50;;;;;;;16.00;100.00;99110.00;15292702;19;20035;-47
2023/10/05 13:38:37;;;;;;;4.43;1.50;;;;;;;16.00;100.00;99104.56;15290239;19;20014;-49
2023/10/05 13:44:01;;;;;;;3.00;1.60;;;;;;;15.93;100.00;99098.16;15291911;19;20021;-52
2023/10/05 13:49:41;;;;;;;2.65;1.40;;;;;;;15.92;100.00;99108.19;15291400;19;20006;-48
2023/10/05 13:55:08;;;;;;;2.58;1.35;;;;;;;15.85;100.00;99121.66;15291721;19;20021;-48
2023/10/05 14:00:32;;;;;;;4.25;1.40;;;;;;;15.91;100.00;99111.94;15295776;19;20029;-48
2023/10/05 14:06:04;;;;;;;3.00;1.40;;;;;;;15.86;100.00;99114.34;15284928;19;20020;-49
2023/10/05 14:11:29;;;;;;;3.38;1.45;;;;;;;15.83;100.00;99109.22;15294252;19;20017;-48
2023/10/05 14:16:54;;;;;;;3.72;1.40;;;;;;;15.89;100.00;99110.41;15290037;19;20015;-48
2023/10/05 14:22:22;;;;;;;2.95;1.52;;;;;;;15.81;100.00;99106.69;15291931;19;20086;-48
2023/10/05 14:27:48;;;;;;;3.25;1.27;;;;;;;15.90;100.00;99114.81;15287852;19;20026;-47
2023/10/05 14:33:16;;;;;;;3.05;1.42;;;;;;;15.81;100.00;99112.13;15292572;19;20023;-49
2023/10/05 14:38:44;;;;;;;2.80;1.35;;;;;;;15.72;100.00;99114.03;15285242;19;20029;-51
2023/10/05 14:44:09;;;;;;;3.65;1.55;;;;;;;15.76;100.00;99119.94;15289702;19;20027;-49
2023/10/05 14:49:34;;;;;;;2.63;1.40;;;;;;;15.76;100.00;99114.50;15288319;19;20337;-51
2023/10/05 14:55:02;;;;;;;4.32;1.70;;;;;;;15.80;100.00;99126.72;15287308;19;20021;-48
2023/10/05 15:00:29;;;;;;;3.45;1.48;;;;;;;15.72;100.00;99130.31;15287951;19;20479;-49
2023/10/05 15:05:54;;;;;;;2.83;1.45;;;;;;;15.74;100.00;99129.31;15281951;19;20019;-50
2023/10/05 15:11:26;;;;;;;2.90;1.60;;;;;;;15.62;100.00;99137.84;15290421;19;20081;-48
2023/10/05 15:16:52;;;;;;;3.50;1.48;;;;;;;15.59;100.00;99132.75;15285907;19;20014;-48
2023/10/05 15:22:16;;;;;;;3.00;1.50;;;;;;;15.53;100.00;99134.31;15289834;19;20025;-47
2023/10/05 15:27:44;;;;;;;3.88;1.70;;;;;;;15.54;100.00;99146.03;15283787;19;20022;-51
2023/10/05 15:33:09;;;;;;;4.32;1.60;;;;;;;15.51;100.00;99132.81;15288906;19;20098;-48
2023/10/05 15:38:33;;;;;;;2.90;1.23;;;;;;;15.43;100.00;99135.56;15278393;19;20484;-54
2023/10/05 15:44:04;;;;;;;3.45;1.70;;;;;;;15.34;100.00;99141.03;15286918;19;20065;-47
2023/10/05 15:49:28;;;;;;;2.58;1.42;;;;;;;15.32;100.00;99132.19;15285445;19;20031;-46
2023/10/05 15:54:54;;;;;;;3.58;1.55;;;;;;;15.28;100.00;99141.72;15286144;19;20027;-48
2023/10/05 16:00:25;;;;;;;4.22;1.60;;;;;;;15.27;100.00;99145.44;15285651;19;20039;-48
2023/10/05 16:05:49;;;;;;;3.80;1.50;;;;;;;15.17;100.00;99152.94;15285274;19;20333;-47
2023/10/05 16:11:14;;;;;;;3.00;1.40;;;;;;;15.16;100.00;99148.53;15296592;19;20541;-49
2023/10/05 16:16:41;;;;;;;2.83;1.63;;;;;;;15.11;100.00;99154.47;15297736;19;20376;-48
2023/10/05 16:22:06;;;;;;;3.55;1.70;;;;;;;15.05;100.00;99166.03;15301285;19;20074;-51
2023/10/05 16:27:31;;;;;;;2.67;1.50;;;;;;;15.00;100.00;99169.22;15294403;19;20013;-49
2023/10/05 16:33:01;;;;;;;4.00;1.67;;;;;;;15.00;100.00;99169.22;15299750;19;20031;-50
2023/10/05 16:38:26;;;;;;;3.95;1.30;;;;;;;14.95;100.00;99174.34;15293427;19;20090;-49
2023/10/05 16:43:51;;;;;;;3.40;1.42;;;;;;;14.85;100.00;99181.81;15293976;19;20025;-47
2023/10/05 16:49:25;;;;;;;3.78;1.73;;;;;;;14.81;100.00;99188.59;15295938;19;20014;-49
2023/10/05 16:54:52;;;;;;;2.83;1.50;;;;;;;14.75;100.00;99193.69;15297914;19;20081;-47
2023/10/05 17:00:22;;;;;;;4.43;1.75;;;;;;;14.72;100.00;99188.59;15299335;19;20094;-53
2023/10/05 17:05:51;;;;;;;4.00;1.65;;;;;;;14.71;100.00;99199.59;15293565;19;20471;-51
2023/10/05 17:11:15;;;;;;;4.15;1.63;;;;;;;14.61;100.00;99197.03;15297988;19;20010;-50
2023/10/05 17:16:39;;;;;;;2.60;1.40;;;;;;;14.62;100.00;99198.72;15287162;19;20023;-50
2023/10/05 17:22:07;;;;;;;3.53;1.70;;;;;;;14.52;100.00;99201.59;15298220;19;20022;-51
2023/10/05 17:27:33;;;;;;;3.00;1.60;;;;;;;14.48;100.00;99211.06;15291544;19;20014;-50
2023/10/05 17:32:57;;;;;;;3.67;1.77;;;;;;;14.49;100.00;99218.19;15295299;19;20014;-51
2023/10/05 17:38:24;;;;;;;3.63;1.80;;;;;;;14.48;100.00;99220.06;15283074;19;20083;-52
2023/10/05 17:43:49;;;;;;;2.80;1.58;;;;;;;14.45;100.00;99223.09;15289970;19;20097;-48
2023/10/05 17:49:16;;;;;;;3.20;1.60;;;;;;;14.52;100.00;99225.16;15282033;19;20087;-50
2023/10/05 17:54:45;;;;;;;3.92;1.77;;;;;;;14.47;100.00;99217.50;15287220;19;20010;-49
2023/10/05 18:00:15;;;;;;;4.63;1.75;;;;;;;14.48;100.00;99230.03;15294175;19;20018;-49
2023/10/05 18:05:39;;;;;;;2.92;1.58;;;;;;;14.41;100.00;99227.16;15288404;19;20074;-50
2023/10/05 18:11:07;;;;;;;4.32;1.70;;;;;;;14.35;100.00;99227.84;15291013;19;20471;-48
2023/10/05 18:16:31;;;;;;;4.38;1.70;;;;;;;14.37;100.00;99233.94;15288392;19;20024;-49
2023/10/05 18:21:56;;;;;;;3.75;1.63;;;;;;;14.35;100.00;99240.56;15285229;19;20872;-53
2023/10/05 18:27:23;;;;;;;4.50;1.65;;;;;;;14.34;100.00;99250.53;15285748;19;20029;-48
2023/10/05 18:32:49;;;;;;;3.45;1.77;;;;;;;14.31;100.00;99240.88;15290829;19;20019;-48
2023/10/05 18:38:14;;;;;;;2.83;1.67;;;;;;;14.26;100.00;99243.22;15283091;19;20018;-48
2023/10/05 18:43:41;;;;;;;2.88;1.60;;;;;;;14.20;100.00;99243.88;15291410;19;20436;-48
2023/10/05 18:49:06;;;;;;;3.60;1.60;;;;;;;14.22;100.00;99243.72;15281639;19;20015;-49
2023/10/05 18:54:31;;;;;;;3.58;1.70;;;;;;;14.20;100.00;99240.31;15281626;19;20023;-49
2023/10/05 19:00:00;;;;;;;4.32;1.75;;;;;;;14.19;100.00;99242.19;15288440;19;20027;-53
2023/10/05 19:05:26;;;;;;;3.75;1.70;;;;;;;14.20;100.00;99249.31;15285482;19;20017;-52
2023/10/05 19:10:51;;;;;;;3.58;1.60;;;;;;;14.21;100.00;99250.16;15288529;19;20017;-47
2023/10/05 19:16:20;;;;;;;3.63;1.55;;;;;;;14.24;100.00;99250.66;15284503;19;20350;-48
2023/10/05 19:21:45;;;;;;;3.72;1.67;;;;;;;14.21;100.00;99252.84;15288588;19;20029;-48
2023/10/05 19:27:11;;;;;;;3.05;1.65;;;;;;;14.20;100.00;99259.28;15277858;19;20561;-49
2023/10/05 19:32:39;;;;;;;4.28;1.77;;;;;;;14.10;100.00;99260.28;15288610;19;20090;-48
2023/10/05 19:38:04;;;;;;;3.50;1.60;;;;;;;14.20;100.00;99260.16;15281703;19;20074;-49
2023/10/05 19:43:30;;;;;;;3.38;1.60;;;;;;;14.23;100.00;99264.38;15296886;19;20025;-49
2023/10/05 19:48:57;;;;;;;4.10;1.70;;;;;;;14.25;100.00;99256.94;15293209;19;20015;-51
2023/10/05 19:54:22;;;;;;;2.88;1.50;;;;;;;14.26;100.00;99264.06;15298948;19;20025;-51
2023/10/05 19:59:47;;;;;;;4.30;1.70;;;;;;;14.12;100.00;99260.97;15294296;19;20030;-49
2023/10/05 20:05:19;;;;;;;2.88;1.60;;;;;;;14.05;100.00;99257.22;15294631;19;20057;-48
2023/10/05 20:10:44;;;;;;;3.95;1.80;;;;;;;14.08;100.00;99262.28;15298887;19;20482;-47
2023/10/05 20:16:08;;;;;;;4.45;1.70;;;;;;;14.02;100.00;99271.09;15295277;19;20006;-49
2023/10/05 20:21:35;;;;;;;4.25;1.50;;;;;;;13.93;100.00;99280.19;15298484;19;20105;-47
2023/10/05 20:27:04;;;;;;;2.97;1.70;;;;;;;13.83;100.00;99278.44;15294275;19;20044;-47
2023/10/05 20:32:29;;;;;;;3.92;1.80;;;;;;;13.71;100.00;99272.47;15292879;19;20019;-47
2023/10/05 20:37:56;;;;;;;4.18;1.83;;;;;;;13.56;100.00;99272.22;15294589;19;20027;-47
2023/10/05 20:43:21;;;;;;;6.28;1.98;;;;;;;13.49;100.00;99278.41;15298069;19;20090;-50
2023/10/05 20:48:46;;;;;;;3.05;1.55;;;;;;;13.37;100.00;99275.94;15290787;19;20018;-49
2023/10/05 20:54:14;;;;;;;4.95;2.10;;;;;;;13.19;100.00;99273.28;15295477;19;20006;-49
2023/10/05 20:59:40;;;;;;;6.13;1.80;;;;;;;13.05;100.00;99276.53;15296735;19;20014;-49
2023/10/05 21:05:05;;;;;;;3.30;1.60;;;;;;;12.94;100.00;99289.28;15286440;19;20051;-49
2023/10/05 21:10:32;;;;;;;4.32;1.55;;;;;;;12.81;100.00;99280.72;15295853;19;20028;-49
2023/10/05 21:15:58;;;;;;;3.40;1.70;;;;;;;12.77;100.00;99280.19;15289918;19;20033;-48
2023/10/05 21:21:24;;;;;;;3.28;1.67;;;;;;;12.67;100.00;99276.69;15294085;19;20032;-52
2023/10/05 21:26:52;;;;;;;2.75;1.70;;;;;;;12.62;100.00;99279.00;15290356;19;20018;-48
2023/10/05 21:32:18;;;;;;;3.90;1.70;;;;;;;12.64;100.00;99285.94;15296160;19;20016;-49
2023/10/05 21:37:44;;;;;;;3.67;1.70;;;;;;;12.69;100.00;99281.94;15282352;19;20036;-48
2023/10/05 21:43:12;;;;;;;4.70;1.70;;;;;;;12.77;100.00;99276.59;15296393;19;20027;-47
2023/10/05 21:48:37;;;;;;;3.78;1.70;;;;;;;12.70;100.00;99283.66;15287891;19;20078;-49
2023/10/05 21:54:01;;;;;;;3.75;1.80;;;;;;;12.62;100.00;99293.38;15293315;19;20031;-48
2023/10/05 21:59:33;;;;;;;3.05;1.67;;;;;;;12.61;100.00;99297.09;15292549;19;20038;-49
2023/10/05 22:04:58;;;;;;;4.65;1.80;;;;;;;12.61;100.00;99285.41;15291469;19;20367;-48
2023/10/05 22:10:24;;;;;;;4.00;1.85;;;;;;;12.58;100.00;99297.38;15286688;19;20357;-47
2023/10/05 22:15:52;;;;;;;3.72;1.70;;;;;;;12.57;100.00;99301.09;15289247;19;20026;-52
2023/10/05 22:21:17;;;;;;;4.90;1.80;;;;;;;12.57;100.00;99301.09;15292184;19;20074;-47
2023/10/05 22:26:42;;;;;;;4.72;1.83;;;;;;;12.55;100.00;99304.97;15287738;19;20040;-50
2023/10/05 22:32:09;;;;;;;2.70;1.50;;;;;;;12.53;100.00;99304.25;15290633;19;20374;-48
2023/10/05 22:37:34;;;;;;;3.67;1.80;;;;;;;12.47;100.00;99308.41;15287515;19;20018;-48
2023/10/05 22:43:00;;;;;;;3.38;1.75;;;;;;;12.42;100.00;99313.41;15285429;19;20485;-48
2023/10/05 22:48:27;;;;;;;4.63;1.80;;;;;;;12.33;100.00;99316.03;15283965;19;20019;-47
2023/10/05 22:53:52;;;;;;;3.55;1.80;;;;;;;12.22;100.00;99327.03;14776907;19;10000937;-50
2023/10/05 22:59:16;;;;;;;3.97;1.85;;;;;;;12.22;100.00;99334.31;15285237;19;20018;-48
2023/10/05 23:04:45;;;;;;;4.43;1.80;;;;;;;12.20;100.00;99341.69;15290018;19;20018;-51
2023/10/05 23:10:11;;;;;;;3.28;1.83;;;;;;;12.14;100.00;99343.16;15285730;19;20033;-48
2023/10/05 23:15:36;;;;;;;4.20;2.10;;;;;;;12.09;100.00;99346.31;15282690;19;20478;-53
2023/10/05 23:21:04;;;;;;;4.20;1.90;;;;;;;12.08;100.00;99343.72;15289569;19;20014;-51
2023/10/05 23:26:30;;;;;;;3.70;2.00;;;;;;;11.94;100.00;99359.38;15282343;19;20015;-48
2023/10/05 23:31:55;;;;;;;3.47;2.00;;;;;;;11.95;100.00;99354.84;15288955;19;20050;-49
2023/10/05 23:37:26;;;;;;;3.40;1.70;;;;;;;11.96;100.00;99360.09;15283953;19;20019;-47
2023/10/05 23:42:50;;;;;;;5.30;1.80;;;;;;;11.93;100.00;99368.50;15285996;19;20098;-51
2023/10/05 23:48:15;;;;;;;4.07;1.85;;;;;;;11.97;100.00;99359.09;15282440;19;20009;-49
2023/10/05 23:53:44;;;;;;;4.95;2.00;;;;;;;11.94;100.00;99351.28;15287279;19;20025;-48
2023/10/05 23:59:11;;;;;;;6.13;1.88;;;;;;;11.87;100.00;99356.44;15279179;19;20021;-48
